Time;durP1;ratioP1;P1;durP2;ratioP2;P2;SDS_P1;SDS_P2;PMS_P1;PMS_P2;Temp;Humidity;BMP_temperature;BMP_pressure;BME280_temperature;BME280_humidity;BME280_pressure;Samples;Min_cycle;Max_cycle;Signal;HPM_P1;HPM_P2
2022/01/10 00:00:23;;;;;;;16.50;8.85;;;;;;;;;;4997691;28;92822;-71
2022/01/10 00:02:51;;;;;;;18.13;8.32;;;;;;;;;;5000541;28;93549;-71
2022/01/10 00:05:18;;;;;;;17.75;9.23;;;;;;;;;;4997805;28;93378;-72
2022/01/10 00:07:44;;;;;;;14.13;8.93;;;;;;;;;;4997415;28;93639;-71
2022/01/10 00:10:11;;;;;;;15.73;8.13;;;;;;;;;;4997802;28;92131;-71
2022/01/10 00:12:38;;;;;;;14.48;8.52;;;;;;;;;;4997794;28;93451;-71
2022/01/10 00:15:05;;;;;;;22.05;9.20;;;;;;;;;;4997330;28;93477;-72
2022/01/10 00:17:31;;;;;;;13.95;8.18;;;;;;;;;;4997186;28;93369;-72
2022/01/10 00:19:58;;;;;;;14.02;8.32;;;;;;;;;;4996188;28;94648;-72
2022/01/10 00:22:26;;;;;;;19.05;9.38;;;;;;;;;;5000422;28;93099;-72
2022/01/10 00:24:52;;;;;;;18.77;8.57;;;;;;;;;;4996929;28;93322;-71
2022/01/10 00:27:18;;;;;;;17.45;9.27;;;;;;;;;;4997056;28;93936;-71
2022/01/10 00:29:45;;;;;;;18.50;9.10;;;;;;;;;;4997166;28;92697;-72
2022/01/10 00:32:11;;;;;;;19.05;9.40;;;;;;;;;;4997204;28;93734;-71
2022/01/10 00:34:37;;;;;;;16.80;9.40;;;;;;;;;;4995906;28;96671;-71
2022/01/10 00:37:04;;;;;;;17.45;8.63;;;;;;;;;;4996488;28;91702;-72
2022/01/10 00:39:31;;;;;;;20.88;9.68;;;;;;;;;;4997127;28;92428;-71
2022/01/10 00:41:57;;;;;;;17.75;9.05;;;;;;;;;;4996762;28;93825;-72
2022/01/10 00:44:27;;;;;;;17.30;9.35;;;;;;;;;;4998764;28;94677;-71
2022/01/10 00:46:53;;;;;;;21.23;9.82;;;;;;;;;;4997153;28;92387;-74
2022/01/10 00:49:20;;;;;;;18.35;9.88;;;;;;;;;;4996094;28;92445;-73
2022/01/10 00:51:46;;;;;;;16.83;9.50;;;;;;;;;;4997150;28;93401;-73
2022/01/10 00:54:12;;;;;;;18.98;10.30;;;;;;;;;;4995100;28;96148;-73
2022/01/10 00:56:40;;;;;;;15.65;8.80;;;;;;;;;;4996489;28;92323;-72
2022/01/10 00:59:06;;;;;;;15.90;9.40;;;;;;;;;;4996945;28;93365;-72
2022/01/10 01:01:33;;;;;;;20.83;11.80;;;;;;;;;;4997294;28;93074;-72
2022/01/10 01:03:59;;;;;;;17.42;9.80;;;;;;;;;;4994848;28;92415;-72
2022/01/10 01:06:26;;;;;;;19.88;9.73;;;;;;;;;;4999730;28;93216;-74
2022/01/10 01:08:57;;;;;;;17.20;10.00;;;;;;;;;;4994659;28;94669;-73
2022/01/10 01:13:58;;;;;;;18.98;10.15;;;;;;;;;;4996570;28;93232;-73
2022/01/10 01:16:44;;;;;;;21.42;11.50;;;;;;;;;;4998218;28;92342;-72
2022/01/10 01:24:31;;;;;;;21.83;10.02;;;;;;;;;;5003205;28;92485;-74
2022/01/10 01:26:58;;;;;;;21.92;10.90;;;;;;;;;;5019884;28;92629;-73
2022/01/10 01:29:26;;;;;;;26.85;10.45;;;;;;;;;;5021243;28;95298;-72
2022/01/10 01:31:54;;;;;;;25.30;11.45;;;;;;;;;;5018933;28;94170;-72
2022/01/10 01:34:21;;;;;;;22.35;10.68;;;;;;;;;;5017540;28;96062;-71
2022/01/10 01:36:51;;;;;;;20.50;10.93;;;;;;;;;;5021170;28;92283;-73
2022/01/10 01:39:21;;;;;;;15.18;10.60;;;;;;;;;;5022608;28;96491;-71
2022/01/10 01:41:55;;;;;;;20.25;10.73;;;;;;;;;;5020031;28;95422;-72
2022/01/10 01:44:21;;;;;;;17.05;9.90;;;;;;;;;;5017887;28;93215;-73
2022/01/10 01:46:47;;;;;;;18.08;10.90;;;;;;;;;;5037565;28;96147;-72
2022/01/10 01:49:14;;;;;;;20.15;11.15;;;;;;;;;;5019038;28;93437;-73
2022/01/10 01:51:41;;;;;;;18.00;10.73;;;;;;;;;;5004834;28;92843;-72
2022/01/10 01:54:09;;;;;;;22.67;11.35;;;;;;;;;;5017571;28;95324;-72
2022/01/10 01:56:36;;;;;;;25.17;12.73;;;;;;;;;;5018045;28;92304;-72
2022/01/10 01:59:03;;;;;;;23.27;12.48;;;;;;;;;;5016087;28;95270;-73
2022/01/10 02:01:30;;;;;;;25.00;11.90;;;;;;;;;;5017469;28;96216;-73
2022/01/10 02:03:57;;;;;;;23.50;11.68;;;;;;;;;;5017564;28;92891;-73
2022/01/10 02:06:27;;;;;;;19.77;10.95;;;;;;;;;;5017548;28;95152;-73
2022/01/10 02:08:54;;;;;;;20.73;11.50;;;;;;;;;;5017493;28;95511;-72
2022/01/10 02:11:20;;;;;;;22.23;11.93;;;;;;;;;;5017157;28;92371;-71
2022/01/10 02:13:47;;;;;;;17.60;10.18;;;;;;;;;;5020474;28;96400;-72
2022/01/10 02:16:33;;;;;;;15.20;10.02;;;;;;;;;;5017805;28;92531;-73
2022/01/10 02:19:03;;;;;;;18.67;10.40;;;;;;;;;;5018096;28;92531;-73
2022/01/10 02:21:31;;;;;;;15.80;10.35;;;;;;;;;;5018477;28;93491;-73
2022/01/10 02:23:58;;;;;;;18.50;10.73;;;;;;;;;;5015507;28;94724;-73
2022/01/10 02:26:28;;;;;;;18.80;10.40;;;;;;;;;;5015970;28;97919;-73
2022/01/10 02:28:54;;;;;;;20.63;10.85;;;;;;;;;;5017328;28;95599;-73
2022/01/10 02:31:21;;;;;;;25.25;11.68;;;;;;;;;;5018595;28;92585;-72
2022/01/10 02:33:50;;;;;;;22.70;11.63;;;;;;;;;;5020238;28;96215;-73
2022/01/10 02:38:45;;;;;;;18.38;10.30;;;;;;;;;;5018124;28;93682;-73
2022/01/10 02:41:18;;;;;;;25.00;10.55;;;;;;;;;;5017645;28;95744;-72
2022/01/10 02:43:44;;;;;;;20.45;10.35;;;;;;;;;;5016849;28;92600;-73
2022/01/10 02:46:11;;;;;;;19.85;10.80;;;;;;;;;;5016948;28;95341;-72
2022/01/10 02:48:37;;;;;;;20.73;11.00;;;;;;;;;;5015086;28;99318;-72
2022/01/10 02:51:04;;;;;;;16.85;10.63;;;;;;;;;;5016396;28;92317;-72
2022/01/10 02:53:30;;;;;;;20.42;11.30;;;;;;;;;;5016876;28;93946;-73
2022/01/10 02:55:56;;;;;;;22.70;11.85;;;;;;;;;;5019912;28;96144;-72
2022/01/10 02:58:23;;;;;;;23.23;12.95;;;;;;;;;;5016941;28;94413;-72
2022/01/10 03:00:49;;;;;;;28.38;12.95;;;;;;;;;;5017825;28;93470;-72
2022/01/10 03:03:17;;;;;;;34.25;14.52;;;;;;;;;;5016605;28;93105;-72
2022/01/10 03:05:45;;;;;;;27.98;15.25;;;;;;;;;;5017161;28;94775;-72
2022/01/10 03:08:12;;;;;;;27.35;14.30;;;;;;;;;;5017769;28;92854;-73
2022/01/10 03:10:38;;;;;;;29.88;13.52;;;;;;;;;;5016452;28;93024;-73
2022/01/10 03:13:05;;;;;;;26.50;13.07;;;;;;;;;;5015031;28;96593;-72
2022/01/10 03:15:31;;;;;;;25.10;15.00;;;;;;;;;;5016526;28;95967;-71
2022/01/10 03:17:58;;;;;;;31.85;16.05;;;;;;;;;;5018759;28;92448;-72
2022/01/10 03:20:25;;;;;;;26.27;15.10;;;;;;;;;;5016244;28;95599;-71
2022/01/10 03:22:52;;;;;;;27.23;13.93;;;;;;;;;;5017571;28;93292;-72
2022/01/10 03:25:19;;;;;;;25.75;14.98;;;;;;;;;;5016332;28;94974;-72
2022/01/10 03:27:48;;;;;;;29.48;14.45;;;;;;;;;;5016343;28;95074;-71
2022/01/10 03:30:18;;;;;;;24.98;14.18;;;;;;;;;;5017935;28;91573;-73
2022/01/10 03:32:47;;;;;;;35.00;16.02;;;;;;;;;;5015944;28;95241;-72
2022/01/10 03:35:35;;;;;;;25.70;14.57;;;;;;;;;;5016259;28;94500;-72
2022/01/10 03:38:05;;;;;;;25.83;14.50;;;;;;;;;;5013959;28;95137;-72
2022/01/10 03:40:33;;;;;;;30.25;15.25;;;;;;;;;;5018909;28;97918;-72
2022/01/10 03:43:06;;;;;;;29.30;15.50;;;;;;;;;;5015860;28;92990;-72
2022/01/10 03:45:33;;;;;;;33.97;16.52;;;;;;;;;;5015889;28;95851;-72
2022/01/10 03:47:59;;;;;;;32.95;16.80;;;;;;;;;;5015796;28;96112;-71
2022/01/10 03:50:27;;;;;;;31.90;16.58;;;;;;;;;;5015974;28;92395;-73
2022/01/10 03:52:53;;;;;;;34.97;17.60;;;;;;;;;;5015795;28;95739;-71
2022/01/10 03:55:20;;;;;;;31.02;17.80;;;;;;;;;;5016193;28;94196;-72
2022/01/10 03:57:47;;;;;;;32.60;16.48;;;;;;;;;;5015225;28;93392;-71
2022/01/10 04:00:15;;;;;;;31.15;17.73;;;;;;;;;;5015764;28;95691;-72
2022/01/10 04:02:46;;;;;;;33.65;17.23;;;;;;;;;;5016301;28;95551;-71
2022/01/10 04:05:14;;;;;;;34.67;17.48;;;;;;;;;;5015629;28;97767;-72
2022/01/10 04:07:41;;;;;;;27.70;15.80;;;;;;;;;;5016852;28;93091;-70
2022/01/10 04:10:07;;;;;;;30.92;16.40;;;;;;;;;;5015514;28;93037;-72
2022/01/10 04:12:34;;;;;;;38.95;17.73;;;;;;;;;;5015672;28;96176;-72
2022/01/10 04:15:01;;;;;;;29.25;18.48;;;;;;;;;;5015512;28;95090;-73
2022/01/10 04:17:27;;;;;;;38.60;20.85;;;;;;;;;;5016795;28;92565;-72
2022/01/10 04:19:54;;;;;;;45.13;21.15;;;;;;;;;;5015825;28;95309;-72
2022/01/10 04:22:20;;;;;;;33.83;19.13;;;;;;;;;;5016613;28;93374;-72
2022/01/10 04:24:47;;;;;;;34.60;19.45;;;;;;;;;;5019432;28;92498;-73
2022/01/10 04:27:13;;;;;;;37.50;19.63;;;;;;;;;;5013485;28;97157;-72
2022/01/10 04:29:40;;;;;;;40.50;18.65;;;;;;;;;;5015673;28;92686;-71
2022/01/10 04:32:08;;;;;;;34.25;18.58;;;;;;;;;;4998980;28;95443;-72
2022/01/10 04:34:34;;;;;;;31.23;17.55;;;;;;;;;;5016281;28;94031;-71
2022/01/10 04:37:01;;;;;;;27.25;16.33;;;;;;;;;;5015329;28;92958;-71
2022/01/10 04:39:27;;;;;;;38.47;16.95;;;;;;;;;;5015934;28;93511;-72
2022/01/10 04:41:54;;;;;;;31.40;15.68;;;;;;;;;;5014991;28;94875;-73
2022/01/10 04:44:21;;;;;;;44.28;17.33;;;;;;;;;;5018615;28;92220;-72
2022/01/10 04:46:47;;;;;;;32.42;17.35;;;;;;;;;;5022580;28;93443;-72
2022/01/10 04:49:21;;;;;;;28.02;17.70;;;;;;;;;;5017361;28;92652;-71
2022/01/10 04:51:49;;;;;;;29.40;17.02;;;;;;;;;;5013605;28;95824;-73
2022/01/10 04:54:16;;;;;;;30.25;15.80;;;;;;;;;;4973494;28;94942;-71
2022/01/10 04:56:42;;;;;;;33.28;17.40;;;;;;;;;;4941743;28;92388;-72
2022/01/10 04:59:09;;;;;;;30.23;16.08;;;;;;;;;;4974040;28;95522;-71
2022/01/10 05:01:36;;;;;;;31.25;17.23;;;;;;;;;;4974394;28;93756;-72
2022/01/10 05:04:04;;;;;;;32.33;18.05;;;;;;;;;;4957559;28;92319;-73
2022/01/10 05:06:31;;;;;;;26.90;18.00;;;;;;;;;;4976869;28;95406;-71
2022/01/10 05:08:57;;;;;;;40.47;19.98;;;;;;;;;;4957916;28;92497;-71
2022/01/10 05:11:41;;;;;;;35.92;19.33;;;;;;;;;;4943993;28;94672;-71
2022/01/10 05:14:09;;;;;;;30.92;18.55;;;;;;;;;;4957587;28;94372;-72
2022/01/10 05:16:36;;;;;;;33.22;19.95;;;;;;;;;;4972644;28;94989;-72
2022/01/10 05:19:02;;;;;;;41.00;20.95;;;;;;;;;;4973522;28;95236;-72
2022/01/10 05:21:29;;;;;;;38.38;19.95;;;;;;;;;;4974017;28;95649;-72
2022/01/10 05:23:56;;;;;;;33.05;20.55;;;;;;;;;;4974287;28;92364;-72
2022/01/10 05:26:24;;;;;;;29.00;18.60;;;;;;;;;;5011582;28;95621;-71
2022/01/10 05:28:52;;;;;;;36.80;21.85;;;;;;;;;;5017670;28;95547;-72
2022/01/10 05:31:19;;;;;;;37.92;22.23;;;;;;;;;;5014424;28;95341;-72
2022/01/10 05:34:03;;;;;;;37.72;22.80;;;;;;;;;;5014831;28;94657;-72
2022/01/10 05:36:29;;;;;;;37.67;22.45;;;;;;;;;;5015689;28;92205;-73
2022/01/10 05:38:56;;;;;;;43.63;23.90;;;;;;;;;;5014522;28;95877;-72
2022/01/10 05:41:24;;;;;;;39.53;23.52;;;;;;;;;;5012621;28;98643;-71
2022/01/10 05:43:51;;;;;;;33.70;22.38;;;;;;;;;;5014396;28;92790;-72
2022/01/10 05:46:21;;;;;;;43.40;22.58;;;;;;;;;;5013973;28;95972;-73
2022/01/10 05:48:52;;;;;;;41.95;23.35;;;;;;;;;;5014235;28;95707;-71
2022/01/10 05:51:22;;;;;;;35.67;22.95;;;;;;;;;;5017616;28;92341;-72
2022/01/10 05:53:56;;;;;;;43.67;23.90;;;;;;;;;;5014078;28;94067;-73
2022/01/10 05:56:23;;;;;;;38.70;25.13;;;;;;;;;;5014269;28;93011;-72
2022/01/10 05:58:54;;;;;;;46.63;26.08;;;;;;;;;;5014330;28;95988;-73
2022/01/10 06:01:21;;;;;;;49.10;27.02;;;;;;;;;;5015737;28;95762;-73
2022/01/10 06:03:54;;;;;;;47.10;27.63;;;;;;;;;;5017654;28;92638;-70
2022/01/10 06:06:28;;;;;;;46.63;27.85;;;;;;;;;;5015894;28;96990;-69
2022/01/10 06:08:55;;;;;;;52.47;28.15;;;;;;;;;;5020987;28;95655;-70
2022/01/10 06:11:21;;;;;;;48.03;26.88;;;;;;;;;;5023411;28;92439;-69
2022/01/10 06:13:48;;;;;;;42.85;25.20;;;;;;;;;;5024657;28;95519;-69
2022/01/10 06:16:16;;;;;;;46.70;24.08;;;;;;;;;;5021064;28;92524;-69
2022/01/10 06:18:44;;;;;;;34.53;21.58;;;;;;;;;;5018556;28;94570;-69
2022/01/10 06:21:11;;;;;;;45.53;22.60;;;;;;;;;;5017378;28;96059;-69
2022/01/10 06:23:38;;;;;;;40.80;22.40;;;;;;;;;;5017719;28;91856;-70
2022/01/10 06:26:04;;;;;;;42.75;22.42;;;;;;;;;;5017128;28;95004;-69
2022/01/10 06:28:31;;;;;;;50.83;24.38;;;;;;;;;;5017106;28;96142;-69
2022/01/10 06:30:59;;;;;;;39.05;21.55;;;;;;;;;;5015641;28;94771;-69
2022/01/10 06:33:33;;;;;;;40.67;24.98;;;;;;;;;;5020130;28;97531;-70
2022/01/10 06:35:59;;;;;;;37.95;24.05;;;;;;;;;;5017632;28;92321;-69
2022/01/10 06:38:27;;;;;;;38.55;22.63;;;;;;;;;;5016829;28;95867;-70
2022/01/10 06:40:53;;;;;;;38.65;23.05;;;;;;;;;;5017078;28;96444;-69
2022/01/10 06:43:20;;;;;;;47.47;25.33;;;;;;;;;;5016925;28;92661;-69
2022/01/10 06:45:46;;;;;;;44.20;26.33;;;;;;;;;;5016778;28;95404;-69
2022/01/10 06:48:14;;;;;;;45.60;25.30;;;;;;;;;;5018803;28;93001;-69
2022/01/10 06:50:46;;;;;;;43.65;25.42;;;;;;;;;;5017011;28;93270;-69
2022/01/10 06:53:14;;;;;;;40.33;23.15;;;;;;;;;;5017152;28;95396;-70
2022/01/10 06:55:41;;;;;;;46.45;24.88;;;;;;;;;;5018290;28;97561;-70
2022/01/10 06:58:07;;;;;;;39.38;24.83;;;;;;;;;;5016777;28;98117;-70
2022/01/10 07:00:35;;;;;;;46.38;25.95;;;;;;;;;;5016849;28;94421;-70
2022/01/10 07:03:02;;;;;;;35.38;23.88;;;;;;;;;;5016800;28;92604;-71
2022/01/10 07:05:32;;;;;;;40.00;23.55;;;;;;;;;;5016266;28;95764;-70
2022/01/10 07:08:05;;;;;;;38.05;22.73;;;;;;;;;;5016384;28;95267;-70
2022/01/10 07:10:37;;;;;;;44.30;26.30;;;;;;;;;;5016538;28;92404;-70
2022/01/10 07:13:04;;;;;;;42.67;24.88;;;;;;;;;;5014871;28;95778;-70
2022/01/10 07:15:30;;;;;;;43.50;25.33;;;;;;;;;;5015394;28;95384;-71
2022/01/10 07:18:01;;;;;;;44.90;25.95;;;;;;;;;;5001063;28;92726;-70
2022/01/10 07:20:33;;;;;;;43.47;25.60;;;;;;;;;;5013789;28;98435;-70
2022/01/10 07:23:01;;;;;;;42.78;24.38;;;;;;;;;;5015210;28;92590;-69
2022/01/10 07:25:28;;;;;;;40.38;23.83;;;;;;;;;;5015647;28;93174;-69
2022/01/10 07:27:54;;;;;;;41.92;24.55;;;;;;;;;;4998333;28;96404;-70
2022/01/10 07:30:22;;;;;;;45.22;23.83;;;;;;;;;;5015369;28;92344;-70
2022/01/10 07:32:48;;;;;;;39.45;24.60;;;;;;;;;;5015108;28;93284;-70
2022/01/10 07:35:15;;;;;;;46.70;25.83;;;;;;;;;;5015723;28;93731;-70
2022/01/10 07:37:41;;;;;;;41.50;23.77;;;;;;;;;;5015675;28;91847;-73
2022/01/10 07:40:08;;;;;;;34.83;24.58;;;;;;;;;;5018262;28;92770;-70
2022/01/10 07:42:35;;;;;;;40.35;24.60;;;;;;;;;;5015099;28;92602;-70
2022/01/10 07:45:08;;;;;;;41.05;24.10;;;;;;;;;;5013795;28;95194;-71
2022/01/10 07:47:35;;;;;;;48.15;25.92;;;;;;;;;;5016846;28;93543;-70
2022/01/10 07:50:03;;;;;;;45.53;26.35;;;;;;;;;;5017067;28;92242;-70
2022/01/10 07:52:30;;;;;;;40.92;25.92;;;;;;;;;;5016966;28;93423;-70
2022/01/10 07:54:56;;;;;;;42.72;26.65;;;;;;;;;;5016702;28;93257;-70
2022/01/10 07:57:23;;;;;;;41.28;26.67;;;;;;;;;;5017063;28;92262;-70
2022/01/10 07:59:49;;;;;;;49.65;27.05;;;;;;;;;;5016700;28;92376;-70
2022/01/10 08:02:16;;;;;;;41.97;25.77;;;;;;;;;;5020443;28;93330;-70
2022/01/10 08:04:43;;;;;;;48.50;26.42;;;;;;;;;;5017053;28;92256;-71
2022/01/10 08:07:09;;;;;;;44.60;26.00;;;;;;;;;;5017002;28;92965;-70
2022/01/10 08:09:35;;;;;;;49.67;25.63;;;;;;;;;;5015441;28;94652;-70
2022/01/10 08:12:02;;;;;;;38.72;24.08;;;;;;;;;;5016691;28;95930;-71
2022/01/10 08:14:29;;;;;;;48.58;26.42;;;;;;;;;;5016067;28;93471;-71
2022/01/10 08:16:56;;;;;;;44.72;26.67;;;;;;;;;;5016708;28;92283;-71
2022/01/10 08:19:23;;;;;;;38.80;24.20;;;;;;;;;;5016319;28;93835;-70
2022/01/10 08:21:49;;;;;;;44.22;24.70;;;;;;;;;;5016548;28;93647;-71
2022/01/10 08:24:16;;;;;;;39.15;24.60;;;;;;;;;;5018838;28;92196;-71
2022/01/10 08:26:42;;;;;;;47.25;27.45;;;;;;;;;;5011572;28;92782;-70
2022/01/10 08:29:08;;;;;;;43.15;25.80;;;;;;;;;;4996517;28;92256;-70
2022/01/10 08:31:35;;;;;;;46.25;26.10;;;;;;;;;;4996703;28;92924;-71
2022/01/10 08:34:03;;;;;;;44.53;25.35;;;;;;;;;;4994647;28;95940;-71
2022/01/10 08:36:30;;;;;;;38.67;25.85;;;;;;;;;;4996490;28;92270;-71
2022/01/10 08:38:56;;;;;;;44.00;25.95;;;;;;;;;;5013821;28;93473;-71
2022/01/10 08:41:22;;;;;;;43.17;25.63;;;;;;;;;;5015814;28;93774;-71
2022/01/10 08:43:49;;;;;;;42.58;26.05;;;;;;;;;;5019199;28;92362;-70
2022/01/10 08:46:15;;;;;;;37.58;23.50;;;;;;;;;;5016170;28;93595;-70
2022/01/10 08:48:48;;;;;;;49.47;26.33;;;;;;;;;;5016370;28;93206;-70
2022/01/10 08:51:14;;;;;;;48.97;28.10;;;;;;;;;;5016699;28;93440;-71
2022/01/10 08:53:41;;;;;;;46.95;25.73;;;;;;;;;;5016072;28;93646;-72
2022/01/10 08:56:07;;;;;;;41.58;25.08;;;;;;;;;;5015529;28;92276;-71
2022/01/10 08:58:33;;;;;;;44.72;27.08;;;;;;;;;;5014509;28;94758;-71
2022/01/10 09:01:00;;;;;;;52.00;29.08;;;;;;;;;;5014721;28;92948;-71
2022/01/10 09:03:27;;;;;;;45.65;27.52;;;;;;;;;;4995926;28;92355;-73
2022/01/10 09:05:55;;;;;;;44.75;27.08;;;;;;;;;;4999185;28;92307;-71
2022/01/10 09:08:22;;;;;;;40.70;26.50;;;;;;;;;;4994714;28;93319;-72
2022/01/10 09:10:49;;;;;;;51.92;29.17;;;;;;;;;;4995783;28;93474;-71
2022/01/10 09:13:15;;;;;;;52.90;29.95;;;;;;;;;;4995751;28;94000;-72
2022/01/10 09:15:42;;;;;;;55.45;30.05;;;;;;;;;;4995598;28;91565;-72
2022/01/10 09:18:08;;;;;;;49.97;28.33;;;;;;;;;;4995565;28;92789;-72
2022/01/10 09:20:36;;;;;;;51.00;29.60;;;;;;;;;;4995917;28;93059;-73
2022/01/10 09:23:03;;;;;;;53.92;29.33;;;;;;;;;;4994239;28;94689;-72
2022/01/10 09:25:29;;;;;;;51.63;27.50;;;;;;;;;;4995371;28;94668;-71
2022/01/10 09:27:56;;;;;;;47.75;27.73;;;;;;;;;;4997775;28;95714;-72
2022/01/10 09:30:23;;;;;;;44.03;28.13;;;;;;;;;;4995624;28;92992;-73
2022/01/10 09:32:49;;;;;;;46.50;29.08;;;;;;;;;;4995463;28;93158;-72
2022/01/10 09:35:15;;;;;;;54.33;29.48;;;;;;;;;;4995836;28;92288;-72
2022/01/10 09:37:42;;;;;;;43.38;28.02;;;;;;;;;;4998585;28;93750;-72
2022/01/10 09:40:08;;;;;;;47.70;29.67;;;;;;;;;;4999597;28;92198;-71
2022/01/10 09:42:35;;;;;;;46.42;29.40;;;;;;;;;;4999156;28;92544;-71
2022/01/10 09:45:03;;;;;;;53.42;30.35;;;;;;;;;;4999236;28;93779;-72
2022/01/10 09:47:29;;;;;;;55.65;30.90;;;;;;;;;;4997051;28;96117;-72
2022/01/10 09:49:55;;;;;;;50.70;30.85;;;;;;;;;;5002212;28;92374;-73
2022/01/10 09:52:22;;;;;;;52.90;30.63;;;;;;;;;;4998902;28;92239;-72
2022/01/10 09:54:50;;;;;;;51.67;30.83;;;;;;;;;;4998561;28;92366;-72
2022/01/10 09:57:17;;;;;;;60.17;32.50;;;;;;;;;;4998975;28;93649;-71
2022/01/10 09:59:43;;;;;;;54.50;32.80;;;;;;;;;;4998673;28;93850;-72
2022/01/10 10:02:11;;;;;;;56.40;31.60;;;;;;;;;;4998975;28;92408;-72
2022/01/10 10:04:37;;;;;;;55.13;32.15;;;;;;;;;;4999474;28;93348;-70
2022/01/10 10:07:06;;;;;;;55.75;33.13;;;;;;;;;;4998421;28;93753;-71
2022/01/10 10:09:33;;;;;;;53.65;31.38;;;;;;;;;;4998918;28;92405;-71
2022/01/10 10:12:00;;;;;;;52.95;33.35;;;;;;;;;;5013446;28;94697;-74
2022/01/10 10:14:27;;;;;;;56.22;33.22;;;;;;;;;;5018751;28;92450;-71
2022/01/10 10:16:56;;;;;;;57.60;34.25;;;;;;;;;;5018674;28;93481;-72
2022/01/10 10:19:24;;;;;;;53.90;32.58;;;;;;;;;;5022155;28;92902;-72
2022/01/10 10:21:51;;;;;;;55.08;32.53;;;;;;;;;;5024856;28;93381;-71
2022/01/10 10:24:18;;;;;;;52.17;33.00;;;;;;;;;;5022301;28;93896;-72
2022/01/10 10:26:45;;;;;;;52.90;33.45;;;;;;;;;;5013006;28;92667;-72
2022/01/10 10:29:14;;;;;;;58.33;32.55;;;;;;;;;;5004654;28;91691;-71
2022/01/10 10:31:44;;;;;;;60.83;31.98;;;;;;;;;;4999194;28;92316;-74
2022/01/10 10:34:17;;;;;;;51.95;33.85;;;;;;;;;;5001282;28;93573;-71
2022/01/10 10:36:43;;;;;;;62.05;33.25;;;;;;;;;;4996952;28;94711;-72
2022/01/10 10:39:10;;;;;;;54.78;32.85;;;;;;;;;;4997380;28;93672;-72
2022/01/10 10:41:38;;;;;;;57.00;34.22;;;;;;;;;;4998233;28;92423;-71
2022/01/10 10:44:05;;;;;;;53.53;32.22;;;;;;;;;;4998370;28;92749;-72
2022/01/10 10:46:31;;;;;;;59.28;34.15;;;;;;;;;;4997418;28;93780;-71
2022/01/10 10:49:03;;;;;;;59.58;34.15;;;;;;;;;;4997148;28;92385;-72
2022/01/10 10:51:34;;;;;;;49.55;31.77;;;;;;;;;;4997906;28;93920;-71
2022/01/10 10:54:03;;;;;;;58.25;35.10;;;;;;;;;;5000591;28;93147;-71
2022/01/10 10:56:33;;;;;;;58.08;34.70;;;;;;;;;;4997907;28;92270;-72
2022/01/10 10:59:00;;;;;;;59.70;35.05;;;;;;;;;;4997905;28;94035;-72
2022/01/10 11:01:26;;;;;;;56.90;34.90;;;;;;;;;;4994534;28;94814;-73
2022/01/10 11:03:53;;;;;;;62.58;35.30;;;;;;;;;;4997802;28;95391;-72
2022/01/10 11:06:20;;;;;;;53.17;34.60;;;;;;;;;;4997656;28;92372;-72
2022/01/10 11:08:47;;;;;;;64.53;37.63;;;;;;;;;;4998099;28;92349;-73
2022/01/10 11:11:14;;;;;;;62.10;36.85;;;;;;;;;;4997922;28;93976;-72
2022/01/10 11:13:41;;;;;;;66.43;37.05;;;;;;;;;;4997937;28;92981;-73
2022/01/10 11:16:08;;;;;;;58.88;34.58;;;;;;;;;;5000638;28;92329;-72
2022/01/10 11:18:34;;;;;;;55.08;34.88;;;;;;;;;;4997794;28;92898;-72
2022/01/10 11:21:02;;;;;;;58.45;33.70;;;;;;;;;;4997627;28;92514;-72
2022/01/10 11:23:37;;;;;;;58.20;33.80;;;;;;;;;;4997737;28;92263;-71
2022/01/10 11:26:05;;;;;;;49.92;34.28;;;;;;;;;;4995510;28;95938;-72
2022/01/10 11:28:31;;;;;;;61.15;35.28;;;;;;;;;;4997111;28;92418;-71
2022/01/10 11:31:03;;;;;;;53.33;35.70;;;;;;;;;;4997711;28;92732;-71
2022/01/10 11:33:32;;;;;;;57.08;36.40;;;;;;;;;;4997347;28;93511;-73
2022/01/10 11:36:01;;;;;;;67.90;35.53;;;;;;;;;;5013917;28;92343;-72
2022/01/10 11:38:30;;;;;;;53.20;33.80;;;;;;;;;;5020427;28;93329;-72
2022/01/10 11:41:05;;;;;;;53.95;32.55;;;;;;;;;;5016806;28;92273;-72
2022/01/10 11:43:41;;;;;;;52.63;31.50;;;;;;;;;;5017831;28;93062;-71
2022/01/10 11:46:14;;;;;;;56.33;32.65;;;;;;;;;;5017056;28;93612;-72
2022/01/10 11:48:41;;;;;;;58.90;32.90;;;;;;;;;;5017010;28;92336;-72
2022/01/10 11:51:19;;;;;;;51.70;29.83;;;;;;;;;;5015621;28;94827;-73
2022/01/10 11:53:47;;;;;;;50.70;29.95;;;;;;;;;;5016880;28;93544;-73
2022/01/10 11:56:23;;;;;;;49.55;30.55;;;;;;;;;;5017103;28;92439;-73
2022/01/10 11:59:08;;;;;;;51.25;31.52;;;;;;;;;;5016688;28;93404;-72
2022/01/10 12:01:35;;;;;;;50.28;30.83;;;;;;;;;;5020020;28;93233;-74
2022/01/10 12:04:02;;;;;;;54.08;30.95;;;;;;;;;;5016812;28;93663;-72
2022/01/10 12:06:28;;;;;;;52.95;31.55;;;;;;;;;;5016681;28;92669;-72
2022/01/10 12:08:55;;;;;;;49.20;32.40;;;;;;;;;;5017306;28;91546;-72
2022/01/10 12:11:24;;;;;;;50.50;31.17;;;;;;;;;;5016865;28;92919;-70
2022/01/10 12:13:55;;;;;;;50.97;30.95;;;;;;;;;;5015512;28;96227;-71
2022/01/10 12:16:21;;;;;;;56.57;30.83;;;;;;;;;;5014500;28;96703;-71
2022/01/10 12:18:48;;;;;;;51.35;29.13;;;;;;;;;;5016646;28;95204;-71
2022/01/10 12:21:15;;;;;;;49.50;28.88;;;;;;;;;;5016733;28;93396;-72
2022/01/10 12:23:42;;;;;;;47.03;28.23;;;;;;;;;;5019673;28;92494;-71
2022/01/10 12:26:08;;;;;;;56.00;28.25;;;;;;;;;;5016482;28;94059;-71
2022/01/10 12:28:35;;;;;;;48.53;28.38;;;;;;;;;;5016602;28;92216;-71
2022/01/10 12:31:03;;;;;;;41.30;27.00;;;;;;;;;;5014840;28;94268;-72
2022/01/10 12:33:30;;;;;;;51.03;28.33;;;;;;;;;;5016970;28;92461;-71
2022/01/10 12:35:56;;;;;;;49.97;28.75;;;;;;;;;;5015260;28;93147;-70
2022/01/10 12:38:23;;;;;;;55.60;29.63;;;;;;;;;;5016691;28;93046;-72
2022/01/10 12:40:50;;;;;;;52.60;29.23;;;;;;;;;;5014630;28;96046;-72
2022/01/10 12:43:16;;;;;;;53.03;30.42;;;;;;;;;;5016423;28;92358;-71
2022/01/10 12:45:43;;;;;;;45.28;29.52;;;;;;;;;;5018598;28;93629;-71
2022/01/10 12:48:11;;;;;;;47.90;30.35;;;;;;;;;;5014794;28;94030;-71
2022/01/10 12:50:39;;;;;;;55.70;30.38;;;;;;;;;;5016567;28;93385;-71
2022/01/10 12:53:05;;;;;;;63.28;30.63;;;;;;;;;;5016141;28;93671;-72
2022/01/10 12:55:32;;;;;;;59.72;30.50;;;;;;;;;;5016250;28;92509;-71
2022/01/10 12:57:58;;;;;;;62.80;30.23;;;;;;;;;;5016060;28;93544;-71
2022/01/10 13:00:25;;;;;;;60.92;31.98;;;;;;;;;;5014854;28;94532;-72
2022/01/10 13:02:51;;;;;;;54.05;31.65;;;;;;;;;;5015187;28;92673;-72
2022/01/10 13:05:18;;;;;;;50.63;30.63;;;;;;;;;;5016585;28;94740;-73
2022/01/10 13:07:46;;;;;;;57.33;29.88;;;;;;;;;;5015843;28;92422;-70
2022/01/10 13:10:22;;;;;;;51.33;29.48;;;;;;;;;;5016043;28;93379;-72
2022/01/10 13:12:50;;;;;;;47.83;25.38;;;;;;;;;;5019206;28;93980;-71
2022/01/10 13:15:17;;;;;;;40.13;23.33;;;;;;;;;;5019898;28;92207;-72
2022/01/10 13:17:53;;;;;;;40.53;22.13;;;;;;;;;;5018519;28;93573;-71
2022/01/10 13:20:20;;;;;;;38.88;22.05;;;;;;;;;;5019433;28;92690;-71
2022/01/10 13:22:46;;;;;;;45.38;24.25;;;;;;;;;;5019974;28;91500;-71
2022/01/10 13:25:15;;;;;;;50.33;24.25;;;;;;;;;;5018913;28;92741;-71
2022/01/10 13:27:46;;;;;;;50.10;24.48;;;;;;;;;;5022376;28;93674;-71
2022/01/10 13:30:14;;;;;;;48.78;24.10;;;;;;;;;;5017800;28;95004;-70
2022/01/10 13:32:45;;;;;;;43.38;25.50;;;;;;;;;;5019132;28;93035;-73
2022/01/10 13:35:13;;;;;;;55.50;24.92;;;;;;;;;;5019416;28;92215;-69
2022/01/10 13:37:43;;;;;;;47.53;24.05;;;;;;;;;;5019270;28;93684;-69
2022/01/10 13:40:11;;;;;;;44.42;24.05;;;;;;;;;;5019441;28;93844;-70
2022/01/10 13:42:40;;;;;;;35.58;21.83;;;;;;;;;;5017664;28;92341;-71
2022/01/10 13:45:08;;;;;;;41.63;20.85;;;;;;;;;;5019165;28;93574;-70
2022/01/10 13:47:51;;;;;;;40.72;21.13;;;;;;;;;;5018621;28;93596;-69
2022/01/10 13:50:18;;;;;;;38.88;20.33;;;;;;;;;;5021112;28;92239;-70
2022/01/10 13:53:11;;;;;;;32.45;19.55;;;;;;;;;;5018030;28;94029;-70
2022/01/10 13:55:39;;;;;;;36.75;21.00;;;;;;;;;;5013563;28;95534;-70
2022/01/10 13:58:08;;;;;;;38.95;19.83;;;;;;;;;;5018716;28;95910;-69
2022/01/10 14:00:37;;;;;;;40.17;21.75;;;;;;;;;;5018894;28;93096;-69
2022/01/10 14:03:04;;;;;;;44.65;23.48;;;;;;;;;;5018828;28;92280;-70
2022/01/10 14:05:31;;;;;;;52.63;23.63;;;;;;;;;;5018972;28;93661;-69
2022/01/10 14:07:59;;;;;;;43.15;23.80;;;;;;;;;;5012478;28;93758;-70
2022/01/10 14:10:27;;;;;;;40.17;24.02;;;;;;;;;;5000170;28;92179;-70
2022/01/10 14:12:54;;;;;;;43.30;24.75;;;;;;;;;;5008747;28;93530;-70
2022/01/10 14:15:22;;;;;;;43.53;24.52;;;;;;;;;;5002285;28;92324;-70
2022/01/10 14:17:49;;;;;;;40.15;24.48;;;;;;;;;;5003890;28;92416;-69
2022/01/10 14:20:15;;;;;;;44.88;25.13;;;;;;;;;;5001064;28;95882;-69
2022/01/10 14:22:41;;;;;;;44.53;25.15;;;;;;;;;;5019628;28;92601;-70
2022/01/10 14:25:08;;;;;;;39.58;22.95;;;;;;;;;;5018777;28;92996;-70
2022/01/10 14:27:35;;;;;;;46.17;23.70;;;;;;;;;;5018247;28;93406;-70
2022/01/10 14:30:01;;;;;;;47.50;23.45;;;;;;;;;;5018017;28;92302;-69
2022/01/10 14:32:29;;;;;;;49.50;24.17;;;;;;;;;;5018276;28;93195;-69